createdAt,value
2022-08-29T00:01:08.669Z,101191.38
2022-08-29T00:03:40.695Z,101195.06
2022-08-29T00:06:10.974Z,101189.13
2022-08-29T00:08:40.771Z,101192.81
2022-08-29T00:11:13.141Z,101183.25
2022-08-29T00:13:43.332Z,101183.44
2022-08-29T00:16:13.465Z,101178.34
2022-08-29T00:18:43.765Z,101188.19
2022-08-29T00:21:13.486Z,101192.00
2022-08-29T00:23:43.172Z,101193.97
2022-08-29T00:26:15.611Z,101194.13
2022-08-29T00:28:45.318Z,101189.88
2022-08-29T00:31:15.028Z,101188.25
2022-08-29T00:33:44.937Z,101185.81
2022-08-29T00:36:14.713Z,101182.47
2022-08-29T00:38:44.425Z,101185.16
2022-08-29T00:41:16.790Z,101187.13
2022-08-29T00:43:46.477Z,101189.13
2022-08-29T00:46:34.628Z,101186.66
2022-08-29T00:49:07.161Z,101193.19
2022-08-29T00:51:36.899Z,101194.13
2022-08-29T00:54:09.945Z,101194.34
2022-08-29T00:56:42.980Z,101190.13
2022-08-29T00:59:15.677Z,101188.53
2022-08-29T01:01:45.876Z,101187.84
2022-08-29T01:04:23.653Z,101193.31
2022-08-29T01:06:54.591Z,101190.94
2022-08-29T01:09:24.505Z,101185.78
2022-08-29T01:12:09.845Z,101198.47
2022-08-29T01:14:40.467Z,101188.00
2022-08-29T01:17:11.660Z,101189.97
2022-08-29T01:19:48.000Z,101191.88
2022-08-29T01:22:45.300Z,101194.75
2022-08-29T01:25:19.988Z,101191.38
2022-08-29T01:27:55.988Z,101192.47
2022-08-29T01:30:25.811Z,101194.34
2022-08-29T01:32:57.576Z,101194.53
2022-08-29T01:35:27.510Z,101197.34
2022-08-29T01:37:57.891Z,101196.59
2022-08-29T01:40:33.599Z,101194.09
2022-08-29T01:43:03.678Z,101196.88
2022-08-29T01:45:33.343Z,101197.03
2022-08-29T01:48:03.645Z,101206.06
2022-08-29T01:50:33.885Z,101202.59
2022-08-29T01:53:03.718Z,101201.84
2022-08-29T01:55:36.027Z,101203.75
2022-08-29T01:58:05.721Z,101196.91
2022-08-29T02:00:38.518Z,101212.03
2022-08-29T02:03:08.386Z,101220.16
2022-08-29T02:05:38.031Z,101218.56
2022-08-29T02:08:08.296Z,101218.44
2022-08-29T02:10:40.520Z,101220.47
2022-08-29T02:13:10.383Z,101211.00
2022-08-29T02:15:40.145Z,101208.44
2022-08-29T02:18:09.883Z,101210.38
2022-08-29T02:20:39.543Z,101206.97
2022-08-29T02:23:27.113Z,101213.28
2022-08-29T02:26:01.585Z,101218.72
2022-08-29T02:28:31.280Z,101216.69
2022-08-29T02:31:01.174Z,101217.72
2022-08-29T02:33:31.389Z,101218.56
2022-08-29T02:36:02.168Z,101221.34
2022-08-29T02:38:32.323Z,101219.75
2022-08-29T02:41:04.952Z,101219.91
2022-08-29T02:43:34.968Z,101226.16
2022-08-29T02:46:04.749Z,101233.31
2022-08-29T02:48:34.378Z,101232.59
2022-08-29T02:51:04.062Z,101224.75
2022-08-29T02:53:34.032Z,101229.25
2022-08-29T02:56:06.521Z,101231.22
2022-08-29T02:58:41.949Z,101234.22
2022-08-29T03:01:11.838Z,101229.13
2022-08-29T03:03:41.512Z,101235.34
2022-08-29T03:06:12.524Z,101227.50
2022-08-29T03:08:42.226Z,101227.56
2022-08-29T03:11:14.470Z,101234.72
2022-08-29T03:13:45.842Z,101234.84
2022-08-29T03:16:16.377Z,101235.72
2022-08-29T03:18:46.128Z,101228.81
2022-08-29T03:21:20.767Z,101223.53
2022-08-29T03:23:51.591Z,101224.50
2022-08-29T03:26:23.923Z,101217.56
2022-08-29T03:28:54.015Z,101211.22
2022-08-29T03:31:24.415Z,101214.97
2022-08-29T03:33:54.163Z,101215.81
2022-08-29T03:36:27.058Z,101220.41
2022-08-29T03:38:56.785Z,101217.81
2022-08-29T03:41:30.897Z,101216.09
2022-08-29T03:44:00.798Z,101216.13
2022-08-29T03:46:30.563Z,101219.78
2022-08-29T03:49:00.288Z,101209.34
2022-08-29T03:51:31.572Z,101209.44
2022-08-29T03:54:01.378Z,101206.94
2022-08-29T03:56:33.960Z,101208.72
2022-08-29T03:59:03.821Z,101207.91
2022-08-29T04:01:33.731Z,101202.66
2022-08-29T04:04:03.539Z,101207.94
2022-08-29T04:06:33.777Z,101207.16
2022-08-29T04:09:03.750Z,101203.72
2022-08-29T04:11:36.437Z,101214.38
2022-08-29T04:14:06.334Z,101211.78
2022-08-29T04:16:36.058Z,101210.97
2022-08-29T04:19:05.733Z,101201.31
2022-08-29T04:21:38.591Z,101208.47
2022-08-29T04:24:08.834Z,101209.44
2022-08-29T04:26:41.478Z,101219.34
2022-08-29T04:29:12.578Z,101214.88
2022-08-29T04:31:43.637Z,101207.94
2022-08-29T04:34:15.377Z,101205.34
2022-08-29T04:36:47.237Z,101205.38
2022-08-29T04:39:17.671Z,101211.59
2022-08-29T04:41:49.946Z,101216.03
2022-08-29T04:44:19.683Z,101216.94
2022-08-29T04:46:49.480Z,101216.16
2022-08-29T04:49:19.197Z,101212.66
2022-08-29T04:51:49.113Z,101216.25
2022-08-29T04:54:18.921Z,101217.16
2022-08-29T04:56:51.267Z,101219.81
2022-08-29T04:59:27.103Z,101219.81
2022-08-29T05:01:57.941Z,101210.22
2022-08-29T05:04:27.956Z,101211.94
2022-08-29T05:06:57.671Z,101221.66
2022-08-29T05:09:27.452Z,101220.75
2022-08-29T05:11:59.813Z,101220.75
2022-08-29T05:14:29.804Z,101233.94
2022-08-29T05:16:59.472Z,101231.38
2022-08-29T05:19:29.105Z,101232.09
2022-08-29T05:22:04.308Z,101237.38
2022-08-29T05:24:37.288Z,101235.56
2022-08-29T05:27:14.473Z,101240.03
2022-08-29T05:29:45.039Z,101238.22
2022-08-29T05:32:15.550Z,101243.44
2022-08-29T05:34:46.303Z,101242.44
2022-08-29T05:37:19.385Z,101241.53
2022-08-29T05:39:49.861Z,101236.25
2022-08-29T05:42:23.368Z,101237.97
2022-08-29T05:44:53.473Z,101243.31
2022-08-29T05:47:23.844Z,101235.44
2022-08-29T05:49:53.619Z,101231.81
2022-08-29T05:52:24.156Z,101229.94
2022-08-29T05:54:53.867Z,101230.66
2022-08-29T05:57:27.557Z,101238.53
2022-08-29T05:59:57.916Z,101245.56
2022-08-29T06:02:28.033Z,101253.47
2022-08-29T06:04:58.894Z,101252.47
2022-08-29T06:07:28.653Z,101254.94
2022-08-29T06:10:04.036Z,101249.69
2022-08-29T06:12:36.623Z,101257.41
2022-08-29T06:15:06.781Z,101259.97
2022-08-29T06:17:37.724Z,101258.19
2022-08-29T06:20:10.599Z,101258.81
2022-08-29T06:22:40.704Z,101247.16
2022-08-29T06:25:37.453Z,101244.25
2022-08-29T06:28:03.920Z,101250.09
2022-08-29T06:30:35.436Z,101249.03
2022-08-29T06:33:05.256Z,101251.63
2022-08-29T06:35:35.126Z,101256.03
2022-08-29T06:38:04.901Z,101265.53
2022-08-29T06:40:34.581Z,101256.50
2022-08-29T06:43:06.916Z,101267.63
2022-08-29T06:45:36.717Z,101273.41
2022-08-29T06:48:06.962Z,101265.22
2022-08-29T06:50:42.348Z,101273.75
2022-08-29T06:53:27.537Z,101283.19
2022-08-29T06:56:06.929Z,101282.91
2022-08-29T06:58:44.042Z,101283.56
2022-08-29T07:01:16.628Z,101284.28
2022-08-29T07:03:46.432Z,101285.91
2022-08-29T07:06:16.475Z,101279.53
2022-08-29T07:08:55.169Z,101274.03
2022-08-29T07:11:26.445Z,101280.91
2022-08-29T07:13:59.601Z,101278.06
2022-08-29T07:16:30.254Z,101276.97
2022-08-29T07:18:59.972Z,101281.22
2022-08-29T07:21:30.052Z,101286.44
2022-08-29T07:24:00.676Z,101282.81
2022-08-29T07:26:36.211Z,101279.94
2022-08-29T07:29:12.435Z,101282.41
2022-08-29T07:31:42.210Z,101284.84
2022-08-29T07:34:11.959Z,101288.06
2022-08-29T07:36:41.907Z,101290.59
2022-08-29T07:39:14.115Z,101295.69
2022-08-29T07:41:44.891Z,101292.75
2022-08-29T07:44:17.811Z,101297.56
2022-08-29T07:46:48.520Z,101286.53
2022-08-29T07:49:18.216Z,101288.91
2022-08-29T07:51:47.908Z,101283.91
2022-08-29T07:54:18.891Z,101282.44
2022-08-29T07:56:49.892Z,101277.63
2022-08-29T07:59:23.302Z,101271.84
2022-08-29T08:01:53.720Z,101266.94
2022-08-29T08:04:24.266Z,101265.47
2022-08-29T08:06:54.041Z,101273.00
2022-08-29T08:09:23.658Z,101273.41
2022-08-29T08:11:53.524Z,101279.88
2022-08-29T08:14:34.704Z,101279.34
2022-08-29T08:17:05.275Z,101290.97
2022-08-29T08:19:34.994Z,101282.75
2022-08-29T08:22:04.694Z,101288.97
2022-08-29T08:24:34.400Z,101289.97
2022-08-29T08:27:04.074Z,101286.53
2022-08-29T08:29:36.482Z,101280.50
2022-08-29T08:32:06.838Z,101282.41
2022-08-29T08:34:36.476Z,101279.66
2022-08-29T08:37:10.154Z,101284.88
2022-08-29T08:39:40.890Z,101285.41
2022-08-29T08:42:19.705Z,101286.59
2022-08-29T08:45:04.543Z,101291.13
2022-08-29T08:47:40.263Z,101293.47
2022-08-29T08:50:15.492Z,101287.78
2022-08-29T08:52:48.731Z,101283.31
2022-08-29T08:55:26.025Z,101281.72
2022-08-29T08:58:00.167Z,101292.63
2022-08-29T09:00:35.103Z,101286.53
2022-08-29T09:03:10.930Z,101279.28
2022-08-29T09:05:49.389Z,101282.75
2022-08-29T09:08:26.730Z,101284.00
2022-08-29T09:11:00.422Z,101281.81
2022-08-29T09:13:39.531Z,101293.03
2022-08-29T09:16:17.715Z,101286.28
2022-08-29T09:18:54.063Z,101295.84
2022-08-29T09:21:42.109Z,101290.03
2022-08-29T09:24:15.989Z,101288.50
2022-08-29T09:26:45.752Z,101281.97
2022-08-29T09:33:05.400Z,101272.03
2022-08-29T09:35:39.811Z,101271.47
2022-08-29T09:38:11.810Z,101278.38
2022-08-29T09:40:52.120Z,101266.09
2022-08-29T09:43:25.063Z,101279.34
2022-08-29T09:46:25.848Z,101277.25
2022-08-29T09:49:15.931Z,101276.84
2022-08-29T09:51:47.828Z,101263.91
2022-08-29T09:54:20.718Z,101270.22
2022-08-29T09:56:56.078Z,101273.00
2022-08-29T09:59:30.054Z,101259.94
2022-08-29T10:02:25.089Z,101263.47
2022-08-29T10:04:59.636Z,101258.97
2022-08-29T10:07:30.860Z,101250.09
2022-08-29T10:10:07.130Z,101255.69
2022-08-29T10:12:50.710Z,101259.41
2022-08-29T10:15:48.927Z,101254.59
2022-08-29T10:18:28.610Z,101253.69
2022-08-29T10:21:10.778Z,101254.81
2022-08-29T10:23:44.760Z,101253.28
2022-08-29T10:26:25.003Z,101254.91
2022-08-29T10:28:59.157Z,101260.44
2022-08-29T10:31:37.340Z,101254.44
2022-08-29T10:34:16.548Z,101254.84
2022-08-29T10:36:54.111Z,101253.84
2022-08-29T10:39:32.349Z,101250.16
2022-08-29T10:42:07.964Z,101249.22
2022-08-29T10:44:45.623Z,101233.53
2022-08-29T10:47:25.367Z,101239.88
2022-08-29T10:50:05.976Z,101233.72
2022-08-29T10:52:47.951Z,101230.41
2022-08-29T10:55:23.221Z,101238.59
2022-08-29T10:58:02.180Z,101237.34
2022-08-29T11:00:38.523Z,101240.16
2022-08-29T11:03:11.762Z,101236.13
2022-08-29T11:05:43.790Z,101234.78
2022-08-29T11:08:21.683Z,101228.69
2022-08-29T11:10:53.472Z,101218.56
2022-08-29T11:13:25.948Z,101221.38
2022-08-29T11:16:02.798Z,101217.97
2022-08-29T11:18:38.139Z,101211.03
2022-08-29T11:28:23.382Z,101206.59
2022-08-29T11:30:56.429Z,101205.13
2022-08-29T11:33:35.602Z,101190.47
2022-08-29T11:36:17.570Z,101182.94
2022-08-29T11:38:59.228Z,101180.25
2022-08-29T11:41:31.436Z,101183.88
2022-08-29T11:44:12.076Z,101184.53
2022-08-29T11:46:44.694Z,101186.34
2022-08-29T11:49:40.894Z,101183.66
2022-08-29T11:52:22.459Z,101179.84
2022-08-29T11:55:25.198Z,101180.22
2022-08-29T11:58:04.187Z,101176.81
2022-08-29T12:00:41.785Z,101161.78
2022-08-29T12:03:45.783Z,101170.91
2022-08-29T12:06:42.441Z,101168.34
2022-08-29T12:09:27.956Z,101166.25
2022-08-29T12:12:13.400Z,101169.16
2022-08-29T12:14:45.070Z,101162.28
2022-08-29T12:18:03.323Z,101159.63
2022-08-29T12:20:44.423Z,101158.56
2022-08-29T12:23:22.608Z,101155.88
2022-08-29T12:28:48.614Z,101146.06
2022-08-29T12:32:02.159Z,101146.47
2022-08-29T12:34:49.915Z,101146.81
2022-08-29T12:37:47.979Z,101139.78
2022-08-29T12:40:29.817Z,101141.72
2022-08-29T12:43:24.545Z,101142.84
2022-08-29T12:45:58.781Z,101141.50
2022-08-29T12:48:31.635Z,101143.91
2022-08-29T12:51:04.770Z,101139.53
2022-08-29T12:53:37.175Z,101138.81
2022-08-29T12:56:16.639Z,101124.84
2022-08-29T12:58:49.739Z,101120.50
2022-08-29T13:01:25.901Z,101112.69
2022-08-29T13:04:00.583Z,101115.97
2022-08-29T13:06:33.804Z,101115.44
2022-08-29T13:09:04.999Z,101117.25
2022-08-29T13:11:36.050Z,101118.69
2022-08-29T13:14:10.820Z,101106.41
2022-08-29T13:16:41.890Z,101110.38
2022-08-29T13:19:22.227Z,101108.94
2022-08-29T13:22:05.387Z,101111.13
2022-08-29T13:24:35.715Z,101119.56
2022-08-29T13:27:09.143Z,101117.03
2022-08-29T13:29:40.565Z,101115.03
2022-08-29T13:32:26.533Z,101114.06
2022-08-29T13:35:08.026Z,101104.00
2022-08-29T13:37:42.244Z,101101.31
2022-08-29T13:40:36.759Z,101095.91
2022-08-29T13:43:07.928Z,101097.91
2022-08-29T13:45:38.500Z,101099.63
2022-08-29T13:48:28.784Z,101089.56
2022-08-29T13:50:58.515Z,101088.41
2022-08-29T13:53:31.011Z,101086.44
2022-08-29T13:56:01.551Z,101086.16
2022-08-29T13:58:32.332Z,101072.88
2022-08-29T14:01:29.491Z,101080.00
2022-08-29T14:03:52.290Z,101074.22
2022-08-29T14:06:23.781Z,101079.31
2022-08-29T14:08:59.330Z,101066.41
2022-08-29T14:11:29.608Z,101070.53
2022-08-29T14:13:59.284Z,101068.53
2022-08-29T14:16:29.021Z,101061.06
2022-08-29T14:18:58.672Z,101055.84
2022-08-29T14:21:28.305Z,101052.00
2022-08-29T14:24:00.577Z,101047.19
2022-08-29T14:26:30.447Z,101040.25
2022-08-29T14:29:03.399Z,101047.19
2022-08-29T14:31:33.236Z,101049.16
2022-08-29T14:34:03.099Z,101053.41
2022-08-29T14:36:33.489Z,101045.34
2022-08-29T14:39:07.047Z,101048.88
2022-08-29T14:41:36.800Z,101047.63
2022-08-29T14:44:06.783Z,101047.34
2022-08-29T14:46:36.503Z,101046.34
2022-08-29T14:49:07.708Z,101054.00
2022-08-29T14:51:37.380Z,101046.19
2022-08-29T14:54:09.591Z,101045.34
2022-08-29T14:56:54.801Z,101038.78
2022-08-29T14:59:25.675Z,101033.72
2022-08-29T15:01:56.041Z,101038.09
2022-08-29T15:04:36.639Z,101045.31
2022-08-29T15:07:09.678Z,101039.22
2022-08-29T15:09:43.922Z,101027.06
2022-08-29T15:12:14.099Z,101024.78
2022-08-29T15:14:44.252Z,101020.41
2022-08-29T15:17:14.321Z,101020.41
2022-08-29T15:20:31.620Z,101012.34
2022-08-29T15:22:33.979Z,101012.88
2022-08-29T15:25:06.852Z,101012.03
2022-08-29T15:27:36.816Z,101010.19
2022-08-29T15:30:07.383Z,101003.84
2022-08-29T15:32:39.088Z,101005.41
2022-08-29T15:35:14.383Z,101012.63
2022-08-29T15:37:45.125Z,101003.84
2022-08-29T15:40:17.774Z,100992.22
2022-08-29T15:42:47.443Z,100986.84
2022-08-29T15:45:17.322Z,100987.69
2022-08-29T15:47:47.116Z,100984.41
2022-08-29T15:50:17.262Z,100985.41
2022-08-29T15:52:47.037Z,100976.50
2022-08-29T15:55:19.307Z,100976.63
2022-08-29T15:57:52.469Z,100974.09
2022-08-29T16:00:30.369Z,100975.94
2022-08-29T16:03:02.830Z,100981.31
2022-08-29T16:05:33.592Z,100976.63
2022-08-29T16:08:03.488Z,100976.63
2022-08-29T16:10:36.267Z,100966.88
2022-08-29T16:13:06.543Z,100969.41
2022-08-29T16:15:36.216Z,100968.56
2022-08-29T16:18:07.170Z,100973.25
2022-08-29T16:20:41.634Z,100967.84
2022-08-29T16:23:11.474Z,100958.19
2022-08-29T16:25:44.208Z,100965.56
2022-08-29T16:28:14.245Z,100962.19
2022-08-29T16:30:46.011Z,100970.41
2022-08-29T16:33:16.502Z,100967.81
2022-08-29T16:35:46.488Z,100968.13
2022-08-29T16:38:16.549Z,100967.25
2022-08-29T16:40:49.793Z,100970.22
2022-08-29T16:43:20.148Z,100974.19
2022-08-29T16:45:50.132Z,100973.47
2022-08-29T16:48:20.116Z,100970.06
2022-08-29T16:50:50.119Z,100973.31
2022-08-29T16:53:19.817Z,100972.47
2022-08-29T16:55:52.132Z,100978.97
2022-08-29T16:58:34.421Z,100977.41
2022-08-29T17:01:04.136Z,100975.72
2022-08-29T17:03:33.822Z,100974.00
2022-08-29T17:06:03.712Z,100975.13
2022-08-29T17:08:30.590Z,100973.38
2022-08-29T17:11:00.046Z,100980.59
2022-08-29T17:13:26.916Z,100972.97
2022-08-29T17:15:54.060Z,100969.69
2022-08-29T17:18:23.876Z,100970.97
2022-08-29T17:20:54.103Z,100968.53
2022-08-29T17:23:23.836Z,100966.25
2022-08-29T17:25:53.504Z,100967.50
2022-08-29T17:28:26.077Z,100968.19
2022-08-29T17:30:57.500Z,100967.75
2022-08-29T17:33:28.076Z,100967.44
2022-08-29T17:35:57.911Z,100968.81
2022-08-29T17:38:27.706Z,100975.44
2022-08-29T17:40:58.481Z,100979.53
2022-08-29T17:43:31.276Z,100981.03
2022-08-29T17:46:01.408Z,100985.94
2022-08-29T17:48:31.310Z,100982.81
2022-08-29T17:51:00.956Z,100981.47
2022-08-29T17:53:32.399Z,100980.41
2022-08-29T17:56:13.691Z,100975.56
2022-08-29T17:58:47.168Z,100986.09
2022-08-29T18:01:18.594Z,100986.63
2022-08-29T18:03:48.494Z,100991.78
2022-08-29T18:06:18.056Z,100993.16
2022-08-29T18:08:48.517Z,100985.16
2022-08-29T18:11:19.394Z,100986.75
2022-08-29T18:13:51.728Z,100984.63
2022-08-29T18:16:21.431Z,100990.59
2022-08-29T18:18:51.671Z,100986.06
2022-08-29T18:21:21.483Z,100989.25
2022-08-29T18:23:51.229Z,100996.13
2022-08-29T18:26:20.880Z,100989.69
2022-08-29T18:28:53.349Z,100994.81
2022-08-29T18:31:23.700Z,100993.59
2022-08-29T18:34:01.714Z,100999.44
2022-08-29T18:36:31.550Z,100992.72
2022-08-29T18:39:01.418Z,100995.81
2022-08-29T18:41:31.389Z,100999.69
2022-08-29T18:44:03.709Z,100994.72
2022-08-29T18:46:33.446Z,100997.88
2022-08-29T18:49:03.395Z,101000.84
2022-08-29T18:51:35.008Z,101003.91
2022-08-29T18:54:06.241Z,101002.44
2022-08-29T18:56:35.981Z,101001.72
2022-08-29T18:59:08.415Z,100995.72
2022-08-29T19:01:38.288Z,101001.34
2022-08-29T19:04:08.109Z,101004.25
2022-08-29T19:06:37.823Z,100997.53
2022-08-29T19:09:07.534Z,101010.22
2022-08-29T19:11:37.182Z,101006.91
2022-08-29T19:14:09.595Z,101007.38
2022-08-29T19:16:39.733Z,101010.28
2022-08-29T19:19:13.580Z,101018.44
2022-08-29T19:21:42.393Z,101020.50
2022-08-29T19:24:12.202Z,101022.56
2022-08-29T19:26:43.487Z,101013.16
2022-08-29T19:29:16.927Z,101021.69
2022-08-29T19:31:47.267Z,101021.03
2022-08-29T19:34:17.299Z,101023.13
2022-08-29T19:36:47.441Z,101034.88
2022-08-29T19:39:17.369Z,101021.88
2022-08-29T19:41:47.101Z,101027.56
2022-08-29T19:44:20.019Z,101033.88
2022-08-29T19:46:49.868Z,101034.97
2022-08-29T19:49:19.556Z,101027.22
2022-08-29T19:51:49.515Z,101029.31
2022-08-29T19:54:20.877Z,101021.47
2022-08-29T19:56:50.840Z,101029.00
2022-08-29T19:59:23.308Z,101027.50
2022-08-29T20:01:53.522Z,101030.44
2022-08-29T20:04:23.278Z,101026.38
2022-08-29T20:06:54.588Z,101027.66
2022-08-29T20:09:27.094Z,101024.63
2022-08-29T20:11:57.115Z,101026.63
2022-08-29T20:14:29.381Z,101031.50
2022-08-29T20:16:59.141Z,101025.50
2022-08-29T20:19:29.295Z,101023.16
2022-08-29T20:21:59.000Z,101019.97
2022-08-29T20:24:28.863Z,101018.47
2022-08-29T20:26:58.557Z,101019.88
2022-08-29T20:29:33.151Z,101029.19
2022-08-29T20:32:03.420Z,101024.28
2022-08-29T20:34:33.051Z,101033.50
2022-08-29T20:37:09.232Z,101038.19
2022-08-29T20:39:40.135Z,101031.41
2022-08-29T20:42:09.994Z,101033.56
2022-08-29T20:44:43.674Z,101027.56
2022-08-29T20:47:15.795Z,101032.28
2022-08-29T20:49:45.586Z,101030.69
2022-08-29T20:52:19.759Z,101031.00
2022-08-29T20:54:49.706Z,101033.03
2022-08-29T20:57:19.396Z,101039.44
2022-08-29T20:59:51.998Z,101040.50
2022-08-29T21:02:22.295Z,101042.44
2022-08-29T21:05:04.439Z,101043.59
2022-08-29T21:07:34.091Z,101036.66
2022-08-29T21:10:03.771Z,101044.78
2022-08-29T21:12:33.458Z,101047.53
2022-08-29T21:15:05.763Z,101042.31
2022-08-29T21:17:35.437Z,101050.53
2022-08-29T21:20:05.506Z,101041.88
2022-08-29T21:22:35.140Z,101041.97
2022-08-29T21:25:04.970Z,101043.28
2022-08-29T21:27:34.694Z,101040.78
2022-08-29T21:30:07.906Z,101041.88
2022-08-29T21:32:38.457Z,101042.16
2022-08-29T21:35:09.143Z,101045.16
2022-08-29T21:37:39.195Z,101044.50
2022-08-29T21:40:10.085Z,101043.75
2022-08-29T21:42:41.355Z,101048.53
2022-08-29T21:45:14.289Z,101050.66
2022-08-29T21:47:44.325Z,101050.84
2022-08-29T21:50:15.522Z,101053.69
2022-08-29T21:52:45.211Z,101045.97
2022-08-29T21:55:15.040Z,101040.75
2022-08-29T21:57:57.186Z,101043.75
2022-08-29T22:00:33.383Z,101040.31
2022-08-29T22:03:03.982Z,101035.19
2022-08-29T22:05:34.123Z,101034.53
2022-08-29T22:08:04.888Z,101044.53
2022-08-29T22:10:36.933Z,101048.38
2022-08-29T22:13:09.094Z,101047.69
2022-08-29T22:15:54.093Z,101051.31
2022-08-29T22:18:24.259Z,101051.53
2022-08-29T22:20:55.716Z,101050.75
2022-08-29T22:23:26.423Z,101056.31
2022-08-29T22:25:56.642Z,101053.84
2022-08-29T22:28:26.300Z,101062.03
2022-08-29T22:30:58.852Z,101067.56
2022-08-29T22:33:28.576Z,101067.00
2022-08-29T22:35:58.320Z,101069.75
2022-08-29T22:38:28.926Z,101077.84
2022-08-29T22:40:58.707Z,101072.63
2022-08-29T22:43:28.531Z,101073.47
2022-08-29T22:46:00.854Z,101086.03
2022-08-29T22:48:30.596Z,101088.78
2022-08-29T22:51:00.287Z,101079.09
2022-08-29T22:53:29.984Z,101079.19
2022-08-29T22:55:59.691Z,101080.16
2022-08-29T22:58:29.343Z,101074.94
2022-08-29T23:01:02.240Z,101075.09
2022-08-29T23:03:32.180Z,101075.31
2022-08-29T23:06:02.422Z,101079.03
2022-08-29T23:08:32.108Z,101087.41
2022-08-29T23:11:01.779Z,101088.41
2022-08-29T23:13:31.525Z,101085.75
2022-08-29T23:16:03.973Z,101086.72
2022-08-29T23:18:33.651Z,101086.72
2022-08-29T23:21:03.577Z,101092.44
2022-08-29T23:23:34.349Z,101089.00
2022-08-29T23:26:04.569Z,101086.34
2022-08-29T23:28:35.095Z,101078.53
2022-08-29T23:31:07.498Z,101083.88
2022-08-29T23:33:37.224Z,101076.06
2022-08-29T23:36:07.321Z,101084.09
2022-08-29T23:38:36.975Z,101089.53
2022-08-29T23:41:07.033Z,101091.25
2022-08-29T23:43:36.902Z,101096.56
2022-08-29T23:46:09.654Z,101103.69
2022-08-29T23:48:39.702Z,101087.72
2022-08-29T23:51:11.158Z,101082.41
2022-08-29T23:53:41.529Z,101081.53
2022-08-29T23:56:12.425Z,101079.63
2022-08-29T23:58:42.483Z,101070.75
